Time;durP1;ratioP1;P1;durP2;ratioP2;P2;SDS_P1;SDS_P2;PMS_P1;PMS_P2;Temp;Humidity;BMP_temperature;BMP_pressure;BME280_temperature;BME280_humidity;BME280_pressure;Samples;Min_cycle;Max_cycle;Signal;HPM_P1;HPM_P2
2023/02/27 00:00:24;;;;;;;4.43;1.40;;;;;;;-1.12;77.63;101230.16;5072496;28;20087;-82
2023/02/27 00:02:52;;;;;;;3.63;1.30;;;;;;;-0.82;78.24;101270.41;5072861;28;20044;-81
2023/02/27 00:05:21;;;;;;;3.67;1.52;;;;;;;-1.01;78.27;101252.81;5073633;28;20097;-80
2023/02/27 00:07:56;;;;;;;4.32;1.75;;;;;;;-1.10;77.66;101237.94;5073574;28;20132;-80
2023/02/27 00:10:22;;;;;;;3.67;1.45;;;;;;;-0.82;78.39;101288.59;5070801;28;20052;-79
2023/02/27 00:12:49;;;;;;;3.15;1.40;;;;;;;-1.03;78.68;101244.09;5069520;28;20094;-79
2023/02/27 00:15:18;;;;;;;3.05;1.58;;;;;;;-1.46;78.66;101178.56;5067320;28;20076;-80
2023/02/27 00:17:45;;;;;;;2.97;1.33;;;;;;;-0.82;78.67;101280.81;5072098;28;20052;-78
2023/02/27 00:20:15;;;;;;;3.47;1.48;;;;;;;-1.69;78.87;101139.25;5064371;28;20052;-82
2023/02/27 00:22:43;;;;;;;2.85;1.50;;;;;;;-0.90;79.79;101266.81;5072921;28;20063;-80
2023/02/27 00:25:11;;;;;;;6.57;1.77;;;;;;;-1.38;80.04;101210.69;5072923;28;20048;-80
2023/02/27 00:27:38;;;;;;;2.88;1.25;;;;;;;-0.97;80.16;101265.00;5072480;28;20060;-80
2023/02/27 00:30:08;;;;;;;3.70;1.50;;;;;;;-1.11;80.61;101238.81;5073130;28;20086;-80
2023/02/27 00:32:35;;;;;;;3.22;1.25;;;;;;;-1.33;80.95;101219.44;5079451;28;20049;-81
2023/02/27 00:35:04;;;;;;;2.63;1.38;;;;;;;-1.67;81.59;101171.31;5085023;28;20048;-81
2023/02/27 00:37:30;;;;;;;4.90;1.80;;;;;;;-1.59;81.46;101179.25;5078063;28;20401;-80
2023/02/27 00:39:57;;;;;;;2.25;1.42;;;;;;;-1.50;81.08;101200.13;5076037;28;20135;-81
2023/02/27 00:42:24;;;;;;;5.70;1.70;;;;;;;-1.58;81.93;101183.59;5079827;28;20113;-80
2023/02/27 00:44:50;;;;;;;3.83;1.38;;;;;;;-1.80;82.14;101165.06;5078484;28;20055;-81
2023/02/27 00:47:17;;;;;;;2.28;1.35;;;;;;;-1.13;82.69;101284.72;5081797;28;20402;-80
2023/02/27 00:49:43;;;;;;;3.85;1.20;;;;;;;-1.48;83.00;101233.09;5088104;28;20048;-81
2023/02/27 00:52:10;;;;;;;2.53;1.40;;;;;;;-1.57;83.98;101216.47;5079200;28;20064;-82
2023/02/27 00:54:37;;;;;;;4.65;1.38;;;;;;;-1.26;84.12;101286.22;5078464;28;20149;-81
2023/02/27 00:57:04;;;;;;;4.03;1.70;;;;;;;-1.27;84.17;101266.31;5074470;28;20054;-80
2023/02/27 00:59:30;;;;;;;4.57;1.48;;;;;;;-1.45;83.79;101245.25;5075292;28;20052;-81
2023/02/27 01:01:57;;;;;;;2.17;1.52;;;;;;;-1.54;84.10;101232.09;5060477;28;20044;-80
2023/02/27 01:04:24;;;;;;;4.90;1.73;;;;;;;-1.35;83.50;101267.91;5073078;28;20056;-79
2023/02/27 01:06:50;;;;;;;4.20;1.77;;;;;;;-1.51;84.19;101226.97;5070824;28;20075;-80
2023/02/27 01:09:17;;;;;;;2.38;1.50;;;;;;;-1.98;84.02;101151.81;5070249;28;20181;-81
2023/02/27 01:11:44;;;;;;;5.95;1.67;;;;;;;-1.35;83.71;101265.31;5070118;28;20080;-81
2023/02/27 01:14:11;;;;;;;3.45;1.20;;;;;;;-2.18;83.69;101122.06;5075960;28;20108;-80
2023/02/27 01:16:37;;;;;;;5.28;1.80;;;;;;;-1.78;84.02;101189.34;5060044;28;20048;-80
2023/02/27 01:19:04;;;;;;;3.50;1.40;;;;;;;-1.86;83.98;101177.06;5065683;28;20049;-79
2023/02/27 01:21:31;;;;;;;5.70;1.85;;;;;;;-1.49;84.73;101241.72;5071955;28;20151;-80
2023/02/27 01:23:57;;;;;;;4.20;1.42;;;;;;;-1.33;84.71;101276.59;5055699;28;20075;-78
2023/02/27 01:26:24;;;;;;;5.15;1.92;;;;;;;-1.40;84.48;101261.75;5048453;28;20049;-79
2023/02/27 01:28:51;;;;;;;2.88;1.48;;;;;;;-1.35;84.32;101278.31;5069953;28;20045;-82
2023/02/27 01:31:18;;;;;;;3.33;1.27;;;;;;;-1.51;84.58;101265.94;5067576;28;20045;-81
2023/02/27 01:33:44;;;;;;;3.70;1.40;;;;;;;-1.48;84.75;101266.84;5053426;28;20056;-80
2023/02/27 01:36:11;;;;;;;5.28;1.60;;;;;;;-1.70;85.36;101231.00;5072192;28;20044;-80
2023/02/27 01:38:37;;;;;;;3.05;1.52;;;;;;;-1.56;84.93;101242.47;5068897;28;20049;-80
2023/02/27 01:41:06;;;;;;;3.33;1.13;;;;;;;-1.52;84.86;101252.06;5072874;28;20048;-80
2023/02/27 01:43:33;;;;;;;5.25;1.55;;;;;;;-2.26;84.60;101127.13;5073334;28;20083;-79
2023/02/27 01:46:00;;;;;;;2.35;1.50;;;;;;;-2.31;84.79;101114.94;5073604;28;20082;-80
2023/02/27 01:48:33;;;;;;;1.45;1.27;;;;;;;-1.32;84.80;101282.69;5076429;28;20033;-82
2023/02/27 01:51:07;;;;;;;3.45;1.30;;;;;;;-2.07;84.90;101159.47;5082926;28;20033;-81
2023/02/27 01:53:37;;;;;;;2.25;1.23;;;;;;;-1.70;85.80;101231.00;5087952;28;20082;-82
2023/02/27 01:56:10;;;;;;;2.85;1.55;;;;;;;-1.50;86.47;101301.44;5082490;28;20102;-83
2023/02/27 01:58:37;;;;;;;2.67;1.30;;;;;;;-1.73;86.72;101233.53;5079320;28;20113;-84
2023/02/27 02:01:05;;;;;;;3.95;1.75;;;;;;;-2.07;86.65;101163.78;5067991;28;20102;-81
2023/02/27 02:03:38;;;;;;;2.92;1.35;;;;;;;-1.47;87.77;101267.72;5074207;28;20051;-82
2023/02/27 02:06:06;;;;;;;2.38;1.27;;;;;;;-2.06;87.52;101179.38;5081245;28;20056;-81
2023/02/27 02:08:38;;;;;;;1.77;1.17;;;;;;;-3.21;87.38;100973.41;5088355;28;20045;-81
2023/02/27 02:11:07;;;;;;;3.25;1.55;;;;;;;-1.73;87.85;101209.31;5086382;28;20051;-81
2023/02/27 02:13:34;;;;;;;7.18;1.45;;;;;;;-1.92;86.82;101172.69;5088387;28;20048;-81
2023/02/27 02:16:13;;;;;;;2.65;1.30;;;;;;;-1.42;86.84;101263.50;5089757;28;20226;-82
2023/02/27 02:19:00;;;;;;;3.45;1.30;;;;;;;-1.47;88.17;101249.53;5087797;28;20119;-82
2023/02/27 02:22:02;;;;;;;6.28;1.60;;;;;;;-1.76;87.46;101202.34;5089606;28;20056;-81
2023/02/27 02:24:56;;;;;;;4.18;1.52;;;;;;;-1.47;87.83;101260.81;5080068;28;20149;-81
2023/02/27 02:27:35;;;;;;;3.13;1.40;;;;;;;-1.68;87.97;101234.50;5085236;28;20048;-81
2023/02/27 02:30:21;;;;;;;6.03;1.65;;;;;;;-1.54;89.28;101266.75;5088308;28;20045;-81
2023/02/27 02:33:15;;;;;;;2.30;1.30;;;;;;;-1.57;89.39;101265.81;5085390;28;20136;-81
2023/02/27 02:36:09;;;;;;;4.20;1.40;;;;;;;-1.58;89.60;101262.38;5078332;28;20049;-81
2023/02/27 02:39:00;;;;;;;2.08;1.30;;;;;;;-1.62;89.42;101278.75;5076358;28;20113;-82
2023/02/27 02:42:02;;;;;;;2.22;1.20;;;;;;;-2.01;89.71;101201.06;5074302;28;20144;-81
2023/02/27 02:45:08;;;;;;;2.08;1.17;;;;;;;-2.10;89.41;101195.72;5072879;28;20553;-78
2023/02/27 02:47:57;;;;;;;4.25;1.00;;;;;;;-2.09;89.38;101188.81;5045109;28;20071;-80
2023/02/27 02:50:39;;;;;;;2.47;1.15;;;;;;;-2.33;90.42;101152.94;5070311;28;20185;-79
2023/02/27 02:53:29;;;;;;;4.22;1.30;;;;;;;-1.69;90.57;101278.59;5068937;28;20059;-81
2023/02/27 02:56:13;;;;;;;2.75;1.42;;;;;;;-1.68;91.70;101277.75;5069447;28;20055;-81
2023/02/27 02:58:50;;;;;;;2.53;1.60;;;;;;;-1.92;91.24;101229.78;5074858;28;20067;-82
2023/02/27 03:01:24;;;;;;;2.67;1.23;;;;;;;-2.38;90.81;101164.97;5071585;28;20062;-82
2023/02/27 03:03:57;;;;;;;2.40;1.13;;;;;;;-1.72;91.01;101292.41;5070761;28;20051;-79
2023/02/27 03:06:32;;;;;;;5.07;1.30;;;;;;;-2.24;90.44;101186.84;5068543;28;20079;-81
2023/02/27 03:09:11;;;;;;;2.28;1.08;;;;;;;-2.41;90.81;101164.91;5068367;28;20497;-81
2023/02/27 03:11:41;;;;;;;3.58;1.48;;;;;;;-1.77;91.34;101278.50;5074625;28;20070;-82
2023/02/27 03:14:21;;;;;;;;;;;;;;;-1.71;91.03;101277.69;5075331;28;20044;-80
2023/02/27 03:16:53;;;;;;;2.45;1.20;;;;;;;-1.84;90.82;101255.84;5074212;28;19924;-80
2023/02/27 03:19:26;;;;;;;4.13;1.38;;;;;;;-2.19;91.17;101203.34;5073896;28;20051;-79
2023/02/27 03:22:04;;;;;;;3.97;1.20;;;;;;;-2.41;91.77;101176.16;5069137;28;20083;-79
2023/02/27 03:24:38;;;;;;;2.08;1.10;;;;;;;-3.36;90.49;100993.84;5071779;28;20084;-79
2023/02/27 03:27:07;;;;;;;3.10;0.98;;;;;;;-2.31;90.52;101178.06;5074351;28;20075;-80
2023/02/27 03:29:46;;;;;;;1.83;1.10;;;;;;;-2.21;90.43;101202.47;5067059;28;20068;-80
2023/02/27 03:32:27;;;;;;;3.28;1.33;;;;;;;-2.30;89.71;101185.00;5072698;28;20048;-82
2023/02/27 03:34:55;;;;;;;4.40;1.50;;;;;;;-2.20;89.71;101211.97;5058467;28;20048;-80
2023/02/27 03:37:56;;;;;;;3.20;1.40;;;;;;;-1.68;89.54;101286.44;5073402;28;20129;-80
2023/02/27 03:40:46;;;;;;;2.90;1.17;;;;;;;-1.89;89.61;101260.97;5069625;28;20147;-79
2023/02/27 03:43:27;;;;;;;6.45;1.77;;;;;;;-1.74;89.96;101291.53;5061954;28;20080;-80
2023/02/27 03:46:08;;;;;;;5.13;1.50;;;;;;;-1.96;90.32;101266.91;5067997;28;20052;-80
2023/02/27 03:48:35;;;;;;;2.28;0.98;;;;;;;-2.03;90.99;101275.41;5054785;28;20477;-81
2023/02/27 03:51:02;;;;;;;2.78;0.90;;;;;;;-2.28;90.89;101224.81;5053835;28;20073;-80
2023/02/27 03:53:37;;;;;;;3.78;1.13;;;;;;;-2.57;90.73;101184.50;5073245;28;20086;-80
2023/02/27 03:56:07;;;;;;;3.78;1.30;;;;;;;-1.91;91.25;101304.22;5075952;28;20603;-82
2023/02/27 03:58:34;;;;;;;3.73;1.20;;;;;;;-2.36;91.18;101228.13;5068582;28;20044;-79
2023/02/27 04:01:03;;;;;;;3.30;1.23;;;;;;;-2.15;91.02;101270.00;5054002;28;20479;-79
2023/02/27 04:03:33;;;;;;;2.63;1.27;;;;;;;-2.08;92.28;101282.28;5069700;28;20083;-80
2023/02/27 04:07:21;;;;;;;5.03;1.23;;;;;;;-2.83;91.85;101153.75;5070814;28;20052;-79
2023/02/27 04:08:58;;;;;;;2.95;1.20;;;;;;;-1.85;91.57;101312.09;5072253;28;20088;-81
2023/02/27 04:11:48;;;;;;;2.47;1.35;;;;;;;-2.18;91.70;101276.00;5069278;28;20148;-82
2023/02/27 04:14:18;;;;;;;1.33;0.75;;;;;;;-1.90;91.39;101325.84;5067878;28;20153;-80
2023/02/27 04:16:50;;;;;;;2.63;1.15;;;;;;;-1.91;91.67;101324.97;5071843;28;20075;-80
2023/02/27 04:19:42;;;;;;;4.50;1.33;;;;;;;-2.08;91.95;101296.97;5055306;28;20131;-82
2023/02/27 04:22:29;;;;;;;2.58;0.98;;;;;;;-1.92;91.45;101331.03;5067466;28;20143;-82
2023/02/27 04:24:56;;;;;;;2.03;1.17;;;;;;;-1.96;91.29;101330.91;5063077;28;20045;-80
2023/02/27 04:27:33;;;;;;;1.65;1.08;;;;;;;-1.93;91.75;101321.47;5069221;28;20055;-80
2023/02/27 04:30:24;;;;;;;3.78;1.40;;;;;;;-1.93;91.06;101321.47;5061435;28;20032;-80
2023/02/27 04:33:08;;;;;;;2.65;1.08;;;;;;;-2.09;90.88;101300.41;5071490;28;20090;-81
2023/02/27 04:36:01;;;;;;;2.47;1.33;;;;;;;-1.91;91.13;101326.69;5067450;28;20130;-80
2023/02/27 04:38:31;;;;;;;2.58;1.13;;;;;;;-1.92;90.49;101325.81;5063518;28;20147;-80
2023/02/27 04:41:36;;;;;;;2.70;1.30;;;;;;;-1.94;91.09;101331.84;5072484;28;20048;-81
2023/02/27 04:44:07;;;;;;;2.67;1.13;;;;;;;-2.87;90.96;101171.84;4981288;28;20086;-82
2023/02/27 04:46:37;;;;;;;2.17;1.10;;;;;;;-2.10;90.90;101302.13;5050571;28;20091;-82
2023/02/27 04:49:11;;;;;;;;;;;;;;;-1.96;91.32;101331.81;5073494;28;20533;-81
2023/02/27 04:51:46;;;;;;;2.92;1.13;;;;;;;-2.09;91.72;101314.25;5072172;28;19965;-81
2023/02/27 04:54:20;;;;;;;1.90;0.98;;;;;;;-2.83;91.43;101207.31;5069541;28;20079;-81
2023/02/27 04:56:52;;;;;;;2.00;1.00;;;;;;;-2.39;91.91;101283.41;5054230;28;20052;-81
2023/02/27 04:59:25;;;;;;;3.40;1.40;;;;;;;-2.06;92.06;101350.66;5061495;28;20053;-81
2023/02/27 05:02:03;;;;;;;2.92;1.33;;;;;;;-2.16;91.87;101331.41;5066248;28;20135;-82
2023/02/27 05:04:34;;;;;;;3.22;1.27;;;;;;;-2.06;91.99;101347.19;5052441;28;20059;-80
2023/02/27 05:07:05;;;;;;;1.50;1.00;;;;;;;-2.86;92.65;101215.94;5072371;28;20127;-82
2023/02/27 05:09:40;;;;;;;2.55;1.10;;;;;;;-2.33;93.20;101318.94;5071795;28;20072;-81
2023/02/27 05:12:15;;;;;;;2.65;1.33;;;;;;;-2.21;93.39;101347.75;5054321;28;20139;-80
2023/02/27 05:14:51;;;;;;;3.25;1.13;;;;;;;-2.21;93.70;101345.16;5072764;28;20049;-81
2023/02/27 05:17:24;;;;;;;2.67;1.13;;;;;;;-2.55;93.82;101300.38;5068625;28;20111;-80
2023/02/27 05:19:51;;;;;;;2.42;1.30;;;;;;;-2.55;93.62;101300.38;5060834;28;20335;-81
2023/02/27 05:22:27;;;;;;;2.15;1.27;;;;;;;-2.10;93.34;101367.00;5067561;28;20135;-82
2023/02/27 05:25:31;;;;;;;3.53;1.52;;;;;;;-2.08;93.45;101364.44;5061744;28;20044;-81
2023/02/27 05:28:23;;;;;;;1.90;1.15;;;;;;;-2.12;92.53;101364.38;5065489;28;20052;-81
2023/02/27 05:31:25;;;;;;;2.58;1.35;;;;;;;-2.74;93.13;101272.31;5070849;28;20730;-81
2023/02/27 05:34:06;;;;;;;5.40;1.77;;;;;;;-2.29;93.81;101368.34;5044281;28;20190;-82
2023/02/27 05:36:35;;;;;;;;;;;;;;;-2.23;94.35;101380.56;5071378;28;20571;-81
2023/02/27 05:39:05;;;;;;;4.57;1.42;;;;;;;-2.37;95.00;101353.47;5071613;28;20018;-81
2023/02/27 05:41:40;;;;;;;3.65;1.50;;;;;;;-2.30;95.63;101379.56;5067181;28;20049;-81
2023/02/27 05:44:11;;;;;;;2.95;1.65;;;;;;;-3.17;95.84;101231.66;5068381;28;20542;-82
2023/02/27 05:46:44;;;;;;;3.08;1.30;;;;;;;-2.61;95.83;101331.34;5074302;28;20098;-83
2023/02/27 05:49:18;;;;;;;3.28;1.30;;;;;;;-2.73;95.73;101304.31;5072656;28;20068;-82
2023/02/27 05:51:48;;;;;;;5.93;1.50;;;;;;;-2.21;95.91;101387.56;5073000;28;20130;-84
2023/02/27 05:54:42;;;;;;;4.30;1.58;;;;;;;-2.51;96.18;101338.47;5057186;28;20048;-82
2023/02/27 05:57:14;;;;;;;2.95;1.38;;;;;;;-2.33;95.67;101368.22;5073457;28;20083;-82
2023/02/27 06:00:05;;;;;;;3.75;1.60;;;;;;;-2.55;96.58;101328.03;5072381;28;20075;-82
2023/02/27 06:02:32;;;;;;;3.83;1.38;;;;;;;-2.23;96.20;101396.13;5072614;28;20136;-81
2023/02/27 06:04:58;;;;;;;3.03;1.27;;;;;;;-2.21;97.51;101410.91;5072343;28;20463;-80
2023/02/27 06:07:25;;;;;;;3.10;1.60;;;;;;;-3.14;96.62;101228.25;5075886;28;20128;-80
2023/02/27 06:09:52;;;;;;;2.95;1.35;;;;;;;-2.88;96.60;101273.75;5069447;28;20072;-80
2023/02/27 06:12:19;;;;;;;4.07;1.60;;;;;;;-3.04;95.80;101249.22;5073327;28;20078;-82
2023/02/27 06:14:45;;;;;;;2.13;1.27;;;;;;;-2.43;96.01;101355.94;5075449;28;20139;-82
2023/02/27 06:17:12;;;;;;;3.20;1.48;;;;;;;-2.07;96.06;101406.00;5068620;28;20132;-81
2023/02/27 06:19:38;;;;;;;3.45;1.30;;;;;;;-2.01;96.24;101413.88;5075386;28;20139;-81
2023/02/27 06:22:05;;;;;;;2.42;1.30;;;;;;;-2.97;95.64;101245.91;5075346;28;20121;-81
2023/02/27 06:24:32;;;;;;;3.53;1.60;;;;;;;-2.18;96.57;101382.41;5075908;28;20080;-81
2023/02/27 06:26:58;;;;;;;2.67;1.33;;;;;;;-1.98;96.61;101429.53;5071764;28;20068;-82
2023/02/27 06:29:25;;;;;;;6.35;1.75;;;;;;;-1.95;97.01;101416.59;5077874;28;20079;-81
2023/02/27 06:31:51;;;;;;;4.38;1.30;;;;;;;-2.39;96.02;101347.38;5075845;28;20719;-82
2023/02/27 06:34:18;;;;;;;3.90;1.40;;;;;;;-2.51;96.56;101332.41;5087150;28;20052;-82
2023/02/27 06:36:45;;;;;;;2.83;1.50;;;;;;;-2.66;96.55;101301.84;5085249;28;20123;-81
2023/02/27 06:39:12;;;;;;;3.72;1.67;;;;;;;-2.11;96.66;101391.19;5075052;28;20071;-80
2023/02/27 06:41:38;;;;;;;3.42;1.50;;;;;;;-1.87;96.73;101432.31;5050150;28;20048;-82
2023/02/27 06:44:05;;;;;;;3.05;1.55;;;;;;;-1.90;97.06;101414.13;5072552;28;20504;-81
2023/02/27 06:46:32;;;;;;;3.63;1.60;;;;;;;-2.52;96.43;101310.78;5073539;28;20074;-81
2023/02/27 06:48:58;;;;;;;3.83;1.70;;;;;;;-1.79;96.59;101431.66;5082950;28;20405;-82
2023/02/27 06:51:25;;;;;;;4.45;1.70;;;;;;;-2.04;96.92;101402.56;5075885;28;20052;-82
2023/02/27 06:53:52;;;;;;;2.83;1.55;;;;;;;-2.41;98.23;101329.19;5077342;28;20052;-82
2023/02/27 06:56:18;;;;;;;3.08;1.60;;;;;;;-1.72;97.59;101447.31;5078735;28;20051;-84
2023/02/27 06:58:45;;;;;;;7.68;2.00;;;;;;;-1.78;97.47;101428.22;5075243;28;20052;-81
2023/02/27 07:01:13;;;;;;;6.45;2.13;;;;;;;-2.82;97.70;101242.75;5071476;28;20055;-81
2023/02/27 07:03:41;;;;;;;5.25;1.80;;;;;;;-1.98;97.71;101372.41;5074265;28;20076;-83
2023/02/27 07:06:10;;;;;;;2.97;1.70;;;;;;;-1.83;97.16;101398.66;5074630;28;20143;-83
2023/02/27 07:08:36;;;;;;;5.25;2.50;;;;;;;-1.62;97.50;101418.09;5073917;28;20083;-81
2023/02/27 07:11:23;;;;;;;3.50;1.77;;;;;;;-1.94;97.13;101360.38;5073782;28;20045;-80
2023/02/27 07:13:49;;;;;;;3.22;1.60;;;;;;;-1.74;96.77;101382.41;5073517;28;20047;-80
2023/02/27 07:16:16;;;;;;;3.10;1.75;;;;;;;-1.52;96.56;101420.91;5073461;28;20076;-80
2023/02/27 07:18:43;;;;;;;3.65;1.63;;;;;;;-2.29;97.12;101277.53;5073132;28;20059;-79
2023/02/27 07:21:09;;;;;;;2.63;1.60;;;;;;;-1.25;96.29;101446.50;5055490;28;20135;-79
2023/02/27 07:23:37;;;;;;;5.65;2.13;;;;;;;-2.12;96.17;101273.53;5075006;28;20055;-79
2023/02/27 07:26:06;;;;;;;3.33;1.90;;;;;;;-1.09;96.65;101448.50;5074913;28;20423;-81
2023/02/27 07:28:33;;;;;;;5.22;1.52;;;;;;;-2.11;95.18;101240.69;5063734;28;20045;-83
2023/02/27 07:31:00;;;;;;;6.18;2.20;;;;;;;-0.94;94.86;101436.59;5069865;28;20151;-80
2023/02/27 07:33:27;;;;;;;3.15;1.55;;;;;;;-1.13;93.04;101352.28;5075551;28;20072;-81
2023/02/27 07:35:54;;;;;;;2.42;1.30;;;;;;;-1.38;92.70;101280.84;5051984;28;20079;-83
2023/02/27 07:38:22;;;;;;;4.43;1.70;;;;;;;-0.21;90.55;101448.13;5064330;28;20495;-80
2023/02/27 07:40:52;;;;;;;4.18;1.77;;;;;;;-0.55;88.65;101356.59;5057334;28;20123;-79
2023/02/27 07:43:18;;;;;;;3.42;1.98;;;;;;;-0.10;90.97;101394.47;5072703;28;20128;-80
2023/02/27 07:45:45;;;;;;;5.65;2.20;;;;;;;0.23;86.08;101404.41;5072770;28;20143;-81
2023/02/27 07:48:12;;;;;;;1.98;1.55;;;;;;;0.68;82.82;101445.72;5061721;28;20087;-82
2023/02/27 07:50:38;;;;;;;3.00;1.67;;;;;;;0.23;82.44;101342.78;5052726;28;20045;-79
2023/02/27 07:53:06;;;;;;;7.35;3.75;;;;;;;0.83;80.48;101401.53;5072599;28;20052;-82
2023/02/27 07:55:35;;;;;;;;;;;;;;;1.28;78.39;101452.31;5073327;28;20052;-79
2023/02/27 07:58:02;;;;;;;4.13;1.85;;;;;;;1.14;78.76;101407.00;5072589;28;19924;-81
2023/02/27 08:00:29;;;;;;;3.50;2.20;;;;;;;1.62;74.01;101461.28;5072859;28;20394;-78
2023/02/27 08:02:59;;;;;;;4.80;1.88;;;;;;;1.51;73.18;101455.13;5054928;28;20051;-82
2023/02/27 08:05:26;;;;;;;;;;;;;;;1.60;74.09;101457.78;5055200;28;20044;-80
2023/02/27 08:07:53;;;;;;;3.05;1.33;;;;;;;-0.15;68.50;101180.06;5071985;28;19924;-81
2023/02/27 08:10:20;;;;;;;3.47;1.95;;;;;;;0.60;70.72;101335.31;5070836;28;20155;-80
2023/02/27 08:12:46;;;;;;;3.83;1.48;;;;;;;1.55;71.52;101451.66;5071831;28;20151;-81
2023/02/27 08:15:13;;;;;;;4.47;1.95;;;;;;;1.08;69.87;101373.06;5071969;28;20044;-80
2023/02/27 08:17:40;;;;;;;4.78;1.90;;;;;;;0.92;70.62;101352.09;5071955;28;20633;-83
2023/02/27 08:20:10;;;;;;;4.50;2.03;;;;;;;1.00;71.10;101379.06;5072303;28;20052;-80
2023/02/27 08:22:37;;;;;;;3.90;2.00;;;;;;;0.70;68.26;101308.44;5064706;28;20135;-80
2023/02/27 08:25:06;;;;;;;4.47;2.10;;;;;;;1.53;68.49;101438.59;5055104;28;20047;-81
2023/02/27 08:27:33;;;;;;;3.22;1.90;;;;;;;1.71;66.56;101403.91;5071531;28;20048;-82
2023/02/27 08:30:00;;;;;;;4.45;1.95;;;;;;;1.71;66.16;101357.78;5072483;28;20156;-81
2023/02/27 08:32:27;;;;;;;3.38;2.13;;;;;;;2.31;63.04;101420.69;5068864;28;20110;-82
2023/02/27 08:34:56;;;;;;;3.90;2.20;;;;;;;2.25;62.21;101371.88;5049377;28;20052;-81
2023/02/27 08:37:24;;;;;;;7.47;2.20;;;;;;;2.70;62.00;101469.56;5067690;28;20493;-78
2023/02/27 08:39:50;;;;;;;4.25;2.00;;;;;;;1.81;61.31;101368.25;5072291;28;20453;-80
2023/02/27 08:42:17;;;;;;;3.50;2.00;;;;;;;2.08;62.77;101494.63;5054385;28;20079;-80
2023/02/27 08:44:44;;;;;;;3.30;1.98;;;;;;;1.65;64.59;101479.56;5071792;28;20150;-78
2023/02/27 08:47:10;;;;;;;4.78;2.20;;;;;;;1.42;67.04;101482.88;5071494;28;20072;-80
2023/02/27 08:49:37;;;;;;;3.38;2.25;;;;;;;1.10;68.06;101454.81;5072017;28;20147;-78
2023/02/27 08:52:04;;;;;;;2.63;1.73;;;;;;;1.06;68.66;101477.38;5066118;28;20080;-79
2023/02/27 08:54:30;;;;;;;6.15;2.20;;;;;;;0.79;69.57;101456.25;5041663;28;20080;-78
2023/02/27 08:56:57;;;;;;;4.63;2.10;;;;;;;0.84;71.05;101478.03;5052468;28;20149;-78
2023/02/27 08:59:24;;;;;;;4.70;2.35;;;;;;;0.17;72.25;101353.13;5063521;28;20074;-80
2023/02/27 09:01:51;;;;;;;2.65;2.00;;;;;;;0.78;72.83;101431.94;5067101;28;20143;-79
2023/02/27 09:04:17;;;;;;;2.83;2.00;;;;;;;0.01;71.51;101299.13;5061421;28;20450;-79
2023/02/27 09:06:44;;;;;;;5.05;2.22;;;;;;;0.97;71.01;101441.63;5062575;28;20123;-78
2023/02/27 09:09:11;;;;;;;5.93;2.22;;;;;;;1.04;70.17;101448.66;5068956;28;20079;-79
2023/02/27 09:11:38;;;;;;;4.03;2.00;;;;;;;0.97;69.86;101419.91;5068805;28;20155;-82
2023/02/27 09:14:04;;;;;;;5.18;1.70;;;;;;;1.18;69.66;101442.69;5071525;28;20068;-80
2023/02/27 09:16:31;;;;;;;2.85;1.63;;;;;;;1.45;66.35;101473.31;5052712;28;20490;-79
2023/02/27 09:18:58;;;;;;;2.60;1.73;;;;;;;0.68;64.91;101354.47;5063286;28;20044;-79
2023/02/27 09:21:25;;;;;;;2.63;1.50;;;;;;;1.03;63.96;101444.31;5064039;28;20230;-79
2023/02/27 09:23:57;;;;;;;2.20;1.73;;;;;;;0.45;64.26;101374.25;5063875;28;20044;-79
2023/02/27 09:26:32;;;;;;;2.22;1.38;;;;;;;1.07;64.65;101480.84;5063564;28;20491;-80
2023/02/27 09:29:11;;;;;;;2.65;1.63;;;;;;;0.88;65.07;101422.44;5055243;28;20114;-80
2023/02/27 09:31:38;;;;;;;3.45;1.35;;;;;;;1.12;65.30;101448.72;5061449;28;20116;-80
2023/02/27 09:34:04;;;;;;;2.75;1.50;;;;;;;1.25;65.53;101428.84;5068326;28;20056;-80
2023/02/27 09:36:31;;;;;;;2.13;1.70;;;;;;;1.59;63.59;101450.78;5061651;28;20056;-79
2023/02/27 09:38:58;;;;;;;2.38;1.40;;;;;;;1.35;62.71;101433.25;5041671;28;20063;-80
2023/02/27 09:41:40;;;;;;;2.60;1.30;;;;;;;1.48;62.25;101461.19;5066198;28;20421;-79
2023/02/27 09:44:31;;;;;;;1.63;1.50;;;;;;;1.69;63.02;101492.66;5061575;28;20064;-80
2023/02/27 09:47:27;;;;;;;1.85;1.45;;;;;;;1.63;62.35;101456.06;5061062;28;20045;-79
2023/02/27 09:50:27;;;;;;;1.88;1.40;;;;;;;2.06;61.82;101491.13;5066658;28;20227;-81
2023/02/27 09:52:54;;;;;;;4.30;1.60;;;;;;;2.16;61.28;101486.84;5052360;28;20143;-81
2023/02/27 09:55:22;;;;;;;2.72;1.60;;;;;;;2.08;60.78;101442.38;5061904;28;20110;-79
2023/02/27 09:58:00;;;;;;;1.50;1.40;;;;;;;1.52;58.67;101292.41;5061427;28;20398;-80
2023/02/27 10:00:37;;;;;;;1.85;1.50;;;;;;;2.22;58.81;101413.66;5064060;28;20052;-79
2023/02/27 10:03:34;;;;;;;1.73;1.23;;;;;;;2.79;57.53;101448.69;5058041;28;20106;-80
2023/02/27 10:06:29;;;;;;;2.58;1.40;;;;;;;3.32;56.75;101495.81;5062410;28;20745;-79
2023/02/27 10:09:11;;;;;;;1.50;1.23;;;;;;;3.47;55.81;101494.94;5059121;28;20086;-79
2023/02/27 10:12:15;;;;;;;1.35;0.98;;;;;;;2.99;55.63;101405.09;5072875;28;20478;-83
2023/02/27 10:14:48;;;;;;;1.77;1.20;;;;;;;3.26;55.48;101432.13;4998669;28;20065;-80
2023/02/27 10:17:39;;;;;;;2.25;1.10;;;;;;;3.38;54.64;101435.63;5052133;28;20508;-82
2023/02/27 10:20:15;;;;;;;2.15;1.25;;;;;;;2.92;53.60;101397.25;5060404;28;20047;-81
2023/02/27 10:22:45;;;;;;;2.97;1.15;;;;;;;2.97;54.15;101409.47;5063922;28;20083;-81
2023/02/27 10:25:16;;;;;;;1.25;1.08;;;;;;;3.36;54.18;101496.69;5071797;28;20080;-80
2023/02/27 10:28:07;;;;;;;2.00;1.10;;;;;;;1.21;54.56;101200.97;5066941;28;20068;-80
2023/02/27 10:30:34;;;;;;;2.83;1.30;;;;;;;3.05;55.52;101498.44;5071453;28;20082;-79
2023/02/27 10:33:25;;;;;;;1.88;1.10;;;;;;;3.31;56.08;101485.34;5065240;28;20139;-81
2023/02/27 10:35:53;;;;;;;2.38;1.10;;;;;;;3.29;55.28;101434.75;5074247;28;20160;-80
2023/02/27 10:38:43;;;;;;;1.55;1.10;;;;;;;3.59;53.97;101454.81;5031115;28;20091;-80
2023/02/27 10:41:13;;;;;;;2.65;1.20;;;;;;;3.88;53.70;101490.53;5021222;28;20124;-81
2023/02/27 10:43:41;;;;;;;3.53;1.33;;;;;;;3.90;53.22;101481.81;5021882;28;20073;-78
2023/02/27 10:46:18;;;;;;;3.40;1.33;;;;;;;3.69;53.02;101486.19;5034825;28;20086;-80
2023/02/27 10:48:45;;;;;;;1.40;1.20;;;;;;;3.73;53.39;101487.94;5027386;28;20144;-80
2023/02/27 10:51:21;;;;;;;1.13;1.00;;;;;;;3.87;52.91;101488.78;5031541;28;20145;-81
2023/02/27 10:53:52;;;;;;;1.60;1.20;;;;;;;3.37;52.85;101386.75;5027414;28;20471;-82
2023/02/27 10:56:25;;;;;;;2.28;1.50;;;;;;;3.99;51.51;101489.63;5019095;28;20137;-79
2023/02/27 10:59:05;;;;;;;1.67;1.52;;;;;;;3.72;52.07;101467.88;5030435;28;20057;-80
2023/02/27 11:01:45;;;;;;;5.85;1.65;;;;;;;3.60;51.23;101446.94;5027515;28;20068;-79
2023/02/27 11:04:13;;;;;;;2.92;1.73;;;;;;;3.18;52.52;101385.00;5029256;28;20649;-82
2023/02/27 11:06:41;;;;;;;2.25;1.48;;;;;;;3.47;51.73;101400.69;5032264;28;20049;-82
2023/02/27 11:09:21;;;;;;;2.88;1.65;;;;;;;3.94;51.38;101431.09;5020486;28;20099;-81
2023/02/27 11:11:48;;;;;;;4.28;1.80;;;;;;;4.19;51.31;101469.47;5021997;28;20157;-83
2023/02/27 11:15:29;;;;;;;2.35;1.60;;;;;;;4.23;51.14;101461.59;5006638;28;20040;-80
2023/02/27 11:18:28;;;;;;;2.00;1.30;;;;;;;4.48;50.94;101472.84;5025300;28;20156;-79
2023/02/27 11:21:10;;;;;;;2.60;1.73;;;;;;;4.70;50.77;101459.63;5031092;28;20053;-79
2023/02/27 11:23:47;;;;;;;4.28;1.50;;;;;;;4.63;49.64;101411.56;5021290;28;20152;-81
2023/02/27 11:26:19;;;;;;;1.58;1.45;;;;;;;4.65;49.53;101464.00;5028637;28;20062;-80
2023/02/27 11:29:03;;;;;;;2.85;1.60;;;;;;;3.75;51.00;101357.84;5025522;28;20057;-78
2023/02/27 11:31:32;;;;;;;2.28;1.38;;;;;;;4.01;51.73;101396.16;5022947;28;20395;-80
2023/02/27 11:34:32;;;;;;;2.25;1.17;;;;;;;4.26;50.79;101391.66;5020708;28;20605;-81
2023/02/27 11:37:18;;;;;;;2.00;1.77;;;;;;;4.66;50.42;101460.50;5027482;28;20801;-80
2023/02/27 11:40:03;;;;;;;1.77;1.27;;;;;;;4.54;50.59;101409.88;5018808;28;20322;-81
2023/02/27 11:42:33;;;;;;;4.10;1.35;;;;;;;3.90;50.90;101362.16;5026078;28;20188;-80
2023/02/27 11:45:07;;;;;;;2.37;1.30;;;;;;;3.04;51.53;101287.34;5025216;28;20054;-80
2023/02/27 11:47:37;;;;;;;1.38;1.00;;;;;;;3.02;51.80;101326.59;5026122;28;20497;-81
2023/02/27 11:50:11;;;;;;;2.70;1.10;;;;;;;3.32;52.66;101392.84;5023790;28;20641;-80
2023/02/27 11:53:06;;;;;;;1.50;0.98;;;;;;;3.45;53.35;101437.38;5018441;28;20149;-79
2023/02/27 11:55:33;;;;;;;1.30;1.20;;;;;;;2.50;52.91;101280.44;5017613;28;20058;-81
2023/02/27 11:58:12;;;;;;;3.17;1.45;;;;;;;3.37;53.74;101428.63;5025188;28;20148;-77